Terminal Aerodrome Forecast
Issued by NWS Mt. Holly, NJ

Home | Current Version | Previous Version | Text Only | Print | Product List | Glossary On
Versions: 1 2 3 4 5 6 7 8 9 10 11 12 13 14 15 16 17 18 19 20 21 22 23 24 25 26 27
000
FTUS41 KPHI 261700 RRA
TAFTTN
TAF
KTTN 261743Z 2618/2718 06018G26KT 3SM -SN BKN012 OVC020
      TEMPO 2618/2622 1 1/2SM -SN OVC010
     FM262200 04020G30KT 1SM -SN OVC006
     FM270200 02020G30KT 1/2SM SN OVC004
     FM271700 34017G27KT 2SM -SN BLSN OVC010=

USA.gov is the U.S. government's official web portal to all federal, state and local government web resources and services.